Cloncurry Airport


Codes: YCCY/CNJ
Name: Cloncurry Airport
City: Cloncurry
Country: Australia
Elevation: 616 ft.
Wikipedia:

Photos at Cloncurry Airport


   Photos courtesy of SpottingLog. You can add your own sightings and photos by signing up for a free trial today.



No photos found.

Weather at Cloncurry Airport


Time (UTC)DescriptionTempratureWindCloud coverageVisibilityPressureHumidity
23-May-2024 21:00Broken Clouds21°C9 mph, E84%10000m1016hPa41%
24-May-2024 00:00Broken Clouds23°C9 mph, NE52%10000m1017hPa44%
24-May-2024 03:00Clear Sky27°C9 mph, NE0%10000m1016hPa40%
24-May-2024 06:00Clear Sky28°C9 mph, E1%10000m1014hPa34%
24-May-2024 09:00Clear Sky26°C9 mph, SE1%10000m1015hPa40%
24-May-2024 12:00Clear Sky24°C9 mph, SE0%10000m1017hPa45%
24-May-2024 15:00Clear Sky23°C13 mph, SE0%10000m1017hPa50%
24-May-2024 18:00Clear Sky21°C13 mph, SE0%10000m1017hPa64%
24-May-2024 21:00Clear Sky20°C9 mph, E0%10000m1018hPa70%
25-May-2024 00:00Clear Sky24°C9 mph, E0%10000m1019hPa52%
25-May-2024 03:00Clear Sky28°C9 mph, E0%10000m1017hPa37%
25-May-2024 06:00Clear Sky29°C11 mph, SE0%10000m1015hPa32%
25-May-2024 09:00Clear Sky26°C11 mph, SE0%10000m1016hPa37%
25-May-2024 12:00Clear Sky24°C13 mph, SE0%10000m1018hPa40%
25-May-2024 15:00Clear Sky22°C13 mph, SE0%10000m1018hPa44%
25-May-2024 18:00Clear Sky21°C13 mph, SE0%10000m1018hPa51%
25-May-2024 21:00Clear Sky19°C11 mph, SE0%10000m1019hPa66%
26-May-2024 00:00Clear Sky24°C13 mph, E0%10000m1020hPa49%
26-May-2024 03:00Clear Sky28°C16 mph, E0%10000m1018hPa34%
26-May-2024 06:00Clear Sky28°C16 mph, SE0%10000m1015hPa30%
26-May-2024 09:00Clear Sky25°C11 mph, SE0%10000m1017hPa36%
26-May-2024 12:00Clear Sky23°C11 mph, SE0%10000m1018hPa41%
26-May-2024 15:00Clear Sky23°C16 mph, SE0%10000m1018hPa39%
26-May-2024 18:00Scattered Clouds23°C18 mph, SE29%10000m1017hPa36%
26-May-2024 21:00Overcast Clouds22°C20 mph, SE100%10000m1019hPa38%
27-May-2024 00:00Overcast Clouds24°C18 mph, SE91%10000m1020hPa37%
27-May-2024 03:00Scattered Clouds28°C18 mph, E37%10000m1017hPa28%
27-May-2024 06:00Few Clouds28°C16 mph, SE21%10000m1016hPa26%
27-May-2024 09:00Clear Sky25°C11 mph, SE0%10000m1017hPa31%
27-May-2024 12:00Clear Sky23°C13 mph, SE0%10000m1018hPa35%
27-May-2024 15:00Clear Sky21°C11 mph, SE0%10000m1018hPa39%
27-May-2024 18:00Clear Sky20°C11 mph, SE0%10000m1017hPa43%
27-May-2024 21:00Clear Sky19°C11 mph, SE0%10000m1018hPa46%
28-May-2024 00:00Clear Sky24°C18 mph, E0%10000m1019hPa37%
28-May-2024 03:00Clear Sky28°C16 mph, E0%10000m1016hPa33%
28-May-2024 06:00Clear Sky29°C13 mph, SE0%10000m1014hPa28%
28-May-2024 09:00Clear Sky25°C11 mph, SE0%10000m1016hPa34%
28-May-2024 12:00Clear Sky23°C11 mph, SE0%10000m1017hPa35%
28-May-2024 15:00Clear Sky21°C11 mph, SE0%10000m1016hPa39%
28-May-2024 18:00Clear Sky20°C11 mph, SE0%10000m1016hPa43%